createdAt,value
2018-06-08T00:02:08.325Z,14.30
2018-06-08T00:04:36.532Z,14.30
2018-06-08T00:07:04.808Z,13.70
2018-06-08T00:09:32.986Z,14.20
2018-06-08T00:12:01.158Z,13.80
2018-06-08T00:14:29.352Z,13.60
2018-06-08T00:16:57.534Z,13.50
2018-06-08T00:19:25.677Z,13.50
2018-06-08T00:21:53.861Z,13.60
2018-06-08T00:24:22.040Z,13.80
2018-06-08T00:26:50.232Z,13.70
2018-06-08T00:29:18.374Z,13.90
2018-06-08T00:31:46.578Z,13.80
2018-06-08T00:34:14.733Z,13.60
2018-06-08T00:36:42.901Z,13.70
2018-06-08T00:39:11.609Z,13.50
2018-06-08T00:41:39.760Z,13.70
2018-06-08T00:44:07.926Z,13.60
2018-06-08T00:46:36.104Z,13.60
2018-06-08T00:49:04.268Z,13.60
2018-06-08T00:51:32.460Z,13.80
2018-06-08T00:54:00.565Z,13.70
2018-06-08T00:57:10.485Z,13.70
2018-06-08T00:59:38.669Z,13.80
2018-06-08T01:02:06.860Z,13.80
2018-06-08T01:04:35.006Z,13.50
2018-06-08T01:07:03.196Z,13.50
2018-06-08T01:09:31.362Z,13.90
2018-06-08T01:11:59.549Z,13.70
2018-06-08T01:14:31.726Z,13.70
2018-06-08T01:17:01.309Z,13.60
2018-06-08T01:19:32.099Z,13.60
2018-06-08T01:22:01.049Z,13.70
2018-06-08T01:24:29.184Z,13.50
2018-06-08T01:26:57.492Z,13.60
2018-06-08T01:29:25.643Z,13.50
2018-06-08T01:31:53.857Z,13.40
2018-06-08T01:34:21.989Z,13.40
2018-06-08T01:36:50.192Z,13.50
2018-06-08T01:39:18.386Z,13.40
2018-06-08T01:41:46.520Z,13.40
2018-06-08T01:44:14.757Z,13.70
2018-06-08T01:46:42.968Z,13.50
2018-06-08T01:49:11.132Z,13.50
2018-06-08T01:51:39.316Z,13.50
2018-06-08T01:54:08.634Z,13.80
2018-06-08T01:56:36.863Z,13.70
2018-06-08T01:59:04.956Z,13.80
2018-06-08T02:01:33.163Z,13.50
2018-06-08T02:04:01.313Z,13.50
2018-06-08T02:06:29.498Z,13.70
2018-06-08T02:08:57.656Z,13.30
2018-06-08T02:11:25.869Z,13.40
2018-06-08T02:13:54.004Z,13.00
2018-06-08T02:16:22.194Z,13.10
2018-06-08T02:18:50.309Z,13.10
2018-06-08T02:21:18.433Z,13.70
2018-06-08T02:23:46.591Z,13.10
2018-06-08T02:26:14.877Z,13.20
2018-06-08T02:28:43.129Z,13.20
2018-06-08T02:31:11.331Z,13.10
2018-06-08T02:33:40.073Z,13.60
2018-06-08T02:36:08.286Z,13.00
2018-06-08T02:38:36.481Z,13.30
2018-06-08T02:41:05.613Z,13.10
2018-06-08T02:43:33.877Z,13.10
2018-06-08T02:46:02.032Z,13.60
2018-06-08T02:48:30.716Z,13.30
2018-06-08T02:50:58.867Z,13.30
2018-06-08T02:53:27.072Z,13.00
2018-06-08T02:55:55.230Z,13.30
2018-06-08T02:58:23.466Z,13.20
2018-06-08T03:00:51.667Z,13.00
2018-06-08T03:03:19.897Z,13.00
2018-06-08T03:05:48.008Z,13.00
2018-06-08T03:08:16.213Z,13.10
2018-06-08T03:10:44.363Z,13.10
2018-06-08T03:13:12.600Z,13.10
2018-06-08T03:15:40.813Z,13.30
2018-06-08T03:18:08.923Z,13.60
2018-06-08T03:20:37.052Z,13.70
2018-06-08T03:23:05.236Z,13.10
2018-06-08T03:25:33.405Z,13.30
2018-06-08T03:28:01.596Z,13.10
2018-06-08T03:30:29.762Z,13.40
2018-06-08T03:32:57.872Z,13.50
2018-06-08T03:35:26.341Z,13.50
2018-06-08T03:37:54.492Z,13.70
2018-06-08T03:40:22.663Z,13.90
2018-06-08T03:42:50.831Z,13.80
2018-06-08T03:45:19.006Z,14.00
2018-06-08T03:47:47.353Z,14.10
2018-06-08T03:50:15.569Z,13.60
2018-06-08T03:52:43.780Z,13.80
2018-06-08T03:55:12.421Z,13.90
2018-06-08T03:57:40.613Z,13.60
2018-06-08T04:00:08.780Z,13.70
2018-06-08T04:02:36.967Z,13.50
2018-06-08T04:05:05.164Z,13.50
2018-06-08T04:07:33.305Z,13.50
2018-06-08T04:10:01.443Z,13.50
2018-06-08T04:12:29.668Z,13.70
2018-06-08T04:14:57.785Z,13.50
2018-06-08T04:17:25.922Z,14.20
2018-06-08T04:19:54.080Z,14.00
2018-06-08T04:22:22.207Z,14.10
2018-06-08T04:24:50.321Z,14.00
2018-06-08T04:27:18.438Z,14.60
2018-06-08T04:29:47.084Z,14.60
2018-06-08T04:32:15.205Z,14.50
2018-06-08T04:34:43.338Z,14.70
2018-06-08T04:37:11.536Z,15.00
2018-06-08T04:39:39.657Z,15.20
2018-06-08T04:42:07.807Z,15.30
2018-06-08T04:44:35.932Z,15.50
2018-06-08T04:47:04.046Z,15.60
2018-06-08T04:49:32.189Z,15.90
2018-06-08T04:52:00.403Z,16.10
2018-06-08T04:54:28.525Z,16.20
2018-06-08T04:56:56.644Z,16.40
2018-06-08T04:59:24.773Z,16.50
2018-06-08T05:01:53.577Z,16.80
2018-06-08T05:04:21.712Z,17.20
2018-06-08T05:06:49.837Z,17.40
2018-06-08T05:09:17.957Z,17.10
2018-06-08T05:11:46.114Z,17.90
2018-06-08T05:14:14.228Z,17.80
2018-06-08T05:16:42.356Z,17.90
2018-06-08T05:19:10.472Z,18.10
2018-06-08T05:21:38.586Z,18.30
2018-06-08T05:24:06.718Z,18.40
2018-06-08T05:26:34.888Z,18.60
2018-06-08T05:29:03.060Z,18.80
2018-06-08T05:31:31.201Z,18.90
2018-06-08T05:33:59.496Z,19.10
2018-06-08T05:36:27.661Z,19.30
2018-06-08T05:38:55.890Z,19.40
2018-06-08T05:41:23.997Z,19.50
2018-06-08T05:43:52.194Z,19.70
2018-06-08T05:46:20.350Z,19.80
2018-06-08T05:48:49.166Z,20.00
2018-06-08T05:51:17.325Z,20.10
2018-06-08T05:53:45.541Z,20.30
2018-06-08T05:58:41.723Z,20.50
2018-06-08T06:01:09.959Z,20.60
2018-06-08T06:03:38.183Z,20.70
2018-06-08T06:06:06.382Z,20.80
2018-06-08T06:08:34.625Z,21.00
2018-06-08T06:11:02.838Z,21.10
2018-06-08T06:13:31.028Z,21.20
2018-06-08T06:15:59.203Z,21.40
2018-06-08T06:18:27.329Z,21.60
2018-06-08T06:20:55.581Z,21.80
2018-06-08T06:23:23.855Z,21.90
2018-06-08T06:25:52.107Z,21.90
2018-06-08T06:30:48.514Z,21.90
2018-06-08T06:33:18.674Z,22.00
2018-06-08T06:35:46.836Z,22.10
2018-06-08T06:38:15.005Z,22.00
2018-06-08T06:40:43.233Z,22.10
2018-06-08T06:43:11.459Z,22.10
2018-06-08T06:45:40.416Z,22.30
2018-06-08T06:48:08.606Z,22.30
2018-06-08T06:50:37.849Z,22.40
2018-06-08T06:53:06.089Z,22.40
2018-06-08T06:55:34.279Z,22.60
2018-06-08T06:58:02.430Z,22.70
2018-06-08T07:00:32.674Z,22.70
2018-06-08T07:03:01.936Z,22.70
2018-06-08T07:08:03.250Z,23.10
2018-06-08T07:10:31.488Z,23.20
2018-06-08T07:12:59.689Z,23.30
2018-06-08T07:15:31.876Z,23.40
2018-06-08T07:18:00.036Z,23.50
2018-06-08T07:20:29.077Z,23.70
2018-06-08T07:22:58.326Z,23.80
2018-06-08T07:25:26.628Z,23.80
2018-06-08T07:27:54.769Z,24.00
2018-06-08T07:30:22.957Z,24.10
2018-06-08T07:32:52.159Z,24.00
2018-06-08T07:37:48.836Z,24.30
2018-06-08T07:40:19.185Z,24.20
2018-06-08T07:42:47.264Z,24.30
2018-06-08T07:45:15.387Z,24.30
2018-06-08T07:47:43.497Z,24.30
2018-06-08T07:50:11.690Z,24.40
2018-06-08T07:52:39.829Z,24.60
2018-06-08T07:55:08.474Z,24.70
2018-06-08T07:57:36.666Z,24.80
2018-06-08T08:00:05.861Z,24.60
2018-06-08T08:02:34.012Z,24.50
2018-06-08T08:05:02.169Z,24.60
2018-06-08T08:07:30.297Z,24.50
2018-06-08T08:09:58.416Z,24.50
2018-06-08T08:12:26.678Z,24.60
2018-06-08T08:14:54.814Z,24.80
2018-06-08T08:17:22.961Z,24.80
2018-06-08T08:19:51.902Z,24.90
2018-06-08T08:22:20.015Z,25.00
2018-06-08T08:24:48.141Z,25.20
2018-06-08T08:27:16.252Z,25.40
2018-06-08T08:29:44.388Z,25.30
2018-06-08T08:32:12.525Z,25.30
2018-06-08T08:37:08.564Z,25.50
2018-06-08T08:39:36.712Z,25.60
2018-06-08T08:42:04.815Z,26.00
2018-06-08T08:44:32.961Z,26.40
2018-06-08T08:47:01.101Z,26.60
2018-06-08T08:49:29.209Z,26.40
2018-06-08T08:51:57.399Z,26.70
2018-06-08T08:54:25.755Z,26.70
2018-06-08T08:56:53.932Z,26.70
2018-06-08T08:59:22.928Z,26.70
2018-06-08T09:01:51.084Z,26.70
2018-06-08T09:04:19.222Z,26.40
2018-06-08T09:06:47.376Z,26.30
2018-06-08T09:09:15.510Z,26.30
2018-06-08T09:14:41.304Z,27.00
2018-06-08T09:17:13.816Z,27.50
2018-06-08T09:19:41.966Z,27.50
2018-06-08T09:22:10.105Z,27.30
2018-06-08T09:24:38.268Z,27.40
2018-06-08T09:29:34.322Z,28.10
2018-06-08T09:39:15.226Z,28.20
2018-06-08T09:41:43.433Z,28.40
2018-06-08T09:44:12.146Z,28.60
2018-06-08T09:46:40.311Z,28.50
2018-06-08T09:49:08.529Z,28.50
2018-06-08T09:51:36.685Z,28.40
2018-06-08T09:54:04.813Z,28.10
2018-06-08T09:56:32.962Z,27.50
2018-06-08T09:59:01.126Z,27.20
2018-06-08T10:01:29.383Z,26.80
2018-06-08T10:03:57.501Z,26.50
2018-06-08T10:06:25.644Z,26.30
2018-06-08T10:08:53.794Z,26.40
2018-06-08T10:11:21.945Z,26.70
2018-06-08T10:13:50.089Z,26.60
2018-06-08T10:16:18.253Z,26.40
2018-06-08T10:18:46.416Z,26.00
2018-06-08T10:21:14.556Z,25.70
2018-06-08T10:23:42.818Z,25.40
2018-06-08T10:26:10.966Z,25.20
2018-06-08T10:28:39.097Z,25.00
2018-06-08T10:31:07.317Z,25.00
2018-06-08T10:33:35.506Z,24.90
2018-06-08T10:36:03.642Z,24.90
2018-06-08T10:38:31.938Z,24.90
2018-06-08T10:41:00.079Z,24.80
2018-06-08T10:43:28.214Z,24.60
2018-06-08T10:45:56.402Z,24.60
2018-06-08T10:48:24.611Z,24.50
2018-06-08T10:50:52.703Z,24.60
2018-06-08T10:53:20.847Z,24.50
2018-06-08T10:55:48.998Z,24.40
2018-06-08T10:58:17.134Z,24.40
2018-06-08T11:00:45.437Z,24.40
2018-06-08T11:03:13.749Z,24.50
2018-06-08T11:05:41.909Z,24.60
2018-06-08T11:08:10.117Z,24.70
2018-06-08T11:10:38.344Z,24.80
2018-06-08T11:13:06.626Z,24.80
2018-06-08T11:18:02.768Z,24.90
2018-06-08T11:22:59.558Z,24.80
2018-06-08T11:25:28.985Z,24.80
2018-06-08T11:27:57.967Z,24.90
2018-06-08T11:30:26.988Z,25.00
2018-06-08T11:32:55.120Z,25.00
2018-06-08T11:35:23.344Z,25.10
2018-06-08T11:37:51.513Z,25.20
2018-06-08T11:40:19.685Z,25.30
2018-06-08T11:42:48.427Z,25.40
2018-06-08T11:45:16.591Z,25.60
2018-06-08T11:47:44.822Z,25.80
2018-06-08T11:50:13.009Z,25.90
2018-06-08T11:52:41.232Z,25.90
2018-06-08T11:55:09.416Z,26.00
2018-06-08T11:57:37.585Z,26.10
2018-06-08T12:00:05.829Z,26.20
2018-06-08T12:02:34.035Z,26.10
2018-06-08T12:05:02.349Z,26.40
2018-06-08T12:07:30.747Z,26.50
2018-06-08T12:09:58.986Z,26.80
2018-06-08T12:12:28.293Z,27.10
2018-06-08T12:14:56.480Z,27.30
2018-06-08T12:17:28.021Z,27.50
2018-06-08T12:19:56.229Z,27.80
2018-06-08T12:22:25.340Z,27.90
2018-06-08T12:24:53.510Z,27.90
2018-06-08T12:27:22.015Z,28.30
2018-06-08T12:29:50.437Z,28.60
2018-06-08T12:32:18.631Z,28.60
2018-06-08T12:34:47.415Z,28.40
2018-06-08T12:37:15.566Z,28.50
2018-06-08T12:39:43.754Z,28.50
2018-06-08T12:42:11.995Z,28.40
2018-06-08T12:44:40.183Z,27.90
2018-06-08T12:47:08.349Z,27.60
2018-06-08T12:49:36.563Z,27.60
2018-06-08T12:52:04.785Z,27.50
2018-06-08T12:54:32.998Z,27.40
2018-06-08T12:57:01.162Z,27.20
2018-06-08T12:59:29.497Z,27.00
2018-06-08T13:01:57.673Z,26.80
2018-06-08T13:04:25.850Z,26.30
2018-06-08T13:06:54.165Z,26.10
2018-06-08T13:09:22.352Z,26.00
2018-06-08T13:11:50.629Z,26.10
2018-06-08T13:14:18.804Z,26.10
2018-06-08T13:16:47.274Z,26.20
2018-06-08T13:19:15.486Z,26.40
2018-06-08T13:21:43.697Z,26.40
2018-06-08T13:24:11.925Z,26.30
2018-06-08T13:26:40.128Z,26.30
2018-06-08T13:29:08.470Z,26.50
2018-06-08T13:31:36.634Z,26.50
2018-06-08T13:34:05.105Z,26.70
2018-06-08T13:36:33.332Z,27.00
2018-06-08T13:39:01.541Z,26.80
2018-06-08T13:41:29.705Z,26.80
2018-06-08T13:43:57.976Z,26.70
2018-06-08T13:46:37.517Z,26.90
2018-06-08T13:49:06.712Z,26.80
2018-06-08T13:51:35.010Z,26.90
2018-06-08T13:54:03.182Z,27.30
2018-06-08T13:56:31.317Z,27.60
2018-06-08T13:58:59.506Z,27.50
2018-06-08T14:01:28.258Z,27.50
2018-06-08T14:03:56.506Z,27.60
2018-06-08T14:06:25.347Z,27.70
2018-06-08T14:08:53.529Z,28.10
2018-06-08T14:11:21.849Z,28.10
2018-06-08T14:13:50.029Z,28.30
2018-06-08T14:16:18.170Z,28.40
2018-06-08T14:18:46.362Z,28.30
2018-06-08T14:21:14.509Z,28.30
2018-06-08T14:23:42.757Z,28.20
2018-06-08T14:26:10.969Z,28.20
2018-06-08T14:28:39.973Z,28.20
2018-06-08T14:31:08.096Z,28.00
2018-06-08T14:33:36.265Z,27.90
2018-06-08T14:36:04.462Z,27.80
2018-06-08T14:38:32.565Z,27.80
2018-06-08T14:41:00.764Z,27.90
2018-06-08T14:43:28.954Z,28.10
2018-06-08T14:45:57.092Z,27.90
2018-06-08T14:48:25.266Z,27.90
2018-06-08T14:50:53.437Z,27.80
2018-06-08T14:53:21.609Z,27.70
2018-06-08T14:55:49.789Z,27.50
2018-06-08T14:58:18.893Z,27.60
2018-06-08T15:00:47.052Z,27.70
2018-06-08T15:03:15.335Z,27.60
2018-06-08T15:05:43.496Z,27.70
2018-06-08T15:08:11.621Z,27.90
2018-06-08T15:10:39.745Z,27.80
2018-06-08T15:13:07.950Z,27.70
2018-06-08T15:15:36.126Z,27.40
2018-06-08T15:18:04.270Z,27.20
2018-06-08T15:20:32.443Z,27.00
2018-06-08T15:23:00.632Z,26.80
2018-06-08T15:25:28.747Z,26.70
2018-06-08T15:30:25.886Z,26.70
2018-06-08T15:32:56.157Z,26.60
2018-06-08T15:35:24.312Z,26.40
2018-06-08T15:37:53.509Z,26.30
2018-06-08T15:40:21.921Z,26.10
2018-06-08T15:42:50.101Z,26.10
2018-06-08T15:45:18.984Z,26.00
2018-06-08T15:47:47.152Z,25.90
2018-06-08T15:50:18.550Z,25.90
2018-06-08T15:52:46.663Z,25.80
2018-06-08T15:55:14.993Z,25.60
2018-06-08T15:57:43.140Z,25.50
2018-06-08T16:00:11.887Z,25.50
2018-06-08T16:07:35.961Z,25.60
2018-06-08T16:10:05.190Z,25.60
2018-06-08T16:12:33.499Z,25.80
2018-06-08T16:15:01.813Z,25.70
2018-06-08T16:17:34.436Z,25.50
2018-06-08T16:20:03.601Z,25.50
2018-06-08T16:22:37.765Z,25.50
2018-06-08T16:25:06.945Z,25.50
2018-06-08T16:27:35.173Z,25.50
2018-06-08T16:30:04.909Z,25.60
2018-06-08T16:32:33.056Z,25.60
2018-06-08T16:35:01.225Z,25.60
2018-06-08T16:37:29.333Z,25.50
2018-06-08T16:39:57.508Z,25.40
2018-06-08T16:42:25.636Z,25.50
2018-06-08T16:44:53.764Z,25.50
2018-06-08T16:47:22.015Z,25.50
2018-06-08T16:49:50.162Z,25.50
2018-06-08T16:52:18.292Z,25.40
2018-06-08T16:54:46.429Z,25.40
2018-06-08T16:57:14.616Z,25.30
2018-06-08T16:59:42.732Z,25.30
2018-06-08T17:02:10.868Z,25.30
2018-06-08T17:04:39.049Z,25.20
2018-06-08T17:07:07.207Z,25.20
2018-06-08T17:09:35.316Z,25.20
2018-06-08T17:12:03.482Z,25.20
2018-06-08T17:14:31.602Z,25.20
2018-06-08T17:16:59.757Z,25.10
2018-06-08T17:19:27.891Z,25.00
2018-06-08T17:21:56.017Z,24.80
2018-06-08T17:24:24.127Z,24.60
2018-06-08T17:26:52.262Z,24.40
2018-06-08T17:29:20.372Z,24.20
2018-06-08T17:31:48.840Z,24.10
2018-06-08T17:34:16.980Z,24.00
2018-06-08T17:36:45.144Z,23.90
2018-06-08T17:39:13.301Z,23.80
2018-06-08T17:41:41.442Z,23.80
2018-06-08T17:44:09.560Z,23.70
2018-06-08T17:46:37.724Z,23.50
2018-06-08T17:49:05.836Z,23.40
2018-06-08T17:51:33.987Z,23.40
2018-06-08T17:54:02.084Z,23.30
2018-06-08T17:56:30.261Z,23.20
2018-06-08T17:58:58.409Z,23.10
2018-06-08T18:01:26.535Z,23.10
2018-06-08T18:03:54.656Z,23.00
2018-06-08T18:06:22.785Z,22.90
2018-06-08T18:08:50.957Z,22.90
2018-06-08T18:11:19.124Z,22.80
2018-06-08T18:13:47.268Z,22.70
2018-06-08T18:16:15.413Z,22.60
2018-06-08T18:18:43.528Z,22.60
2018-06-08T18:21:11.654Z,22.50
2018-06-08T18:23:39.765Z,22.50
2018-06-08T18:26:07.918Z,22.40
2018-06-08T18:28:36.024Z,22.40
2018-06-08T18:31:04.221Z,22.20
2018-06-08T18:33:32.388Z,22.10
2018-06-08T18:36:00.509Z,22.00
2018-06-08T18:38:28.637Z,21.90
2018-06-08T18:40:56.776Z,21.90
2018-06-08T18:43:24.938Z,21.70
2018-06-08T18:45:53.084Z,21.70
2018-06-08T18:48:21.229Z,21.70
2018-06-08T18:50:49.338Z,21.60
2018-06-08T18:53:17.474Z,21.50
2018-06-08T18:55:45.600Z,21.50
2018-06-08T18:58:13.725Z,21.40
2018-06-08T19:00:41.845Z,21.30
2018-06-08T19:03:10.013Z,21.20
2018-06-08T19:05:38.126Z,21.10
2018-06-08T19:08:06.240Z,21.00
2018-06-08T19:10:34.364Z,20.90
2018-06-08T19:13:02.497Z,20.80
2018-06-08T19:15:30.641Z,20.80
2018-06-08T19:17:58.764Z,20.70
2018-06-08T19:20:26.912Z,20.70
2018-06-08T19:22:55.044Z,20.60
2018-06-08T19:25:23.141Z,20.40
2018-06-08T19:27:51.274Z,20.20
2018-06-08T19:30:21.405Z,20.10
2018-06-08T19:32:50.639Z,20.00
2018-06-08T19:35:19.805Z,19.90
2018-06-08T19:37:50.072Z,19.80
2018-06-08T19:40:36.441Z,19.70
2018-06-08T19:43:04.582Z,19.60
2018-06-08T19:45:33.797Z,19.30
2018-06-08T19:48:06.565Z,19.10
2018-06-08T19:50:35.771Z,19.00
2018-06-08T19:53:04.978Z,18.80
2018-06-08T19:55:37.634Z,18.70
2018-06-08T19:58:07.848Z,18.60
2018-06-08T20:00:37.064Z,18.50
2018-06-08T20:03:11.014Z,18.40
2018-06-08T20:05:40.177Z,18.30
2018-06-08T20:08:09.393Z,18.30
2018-06-08T20:10:37.557Z,18.20
2018-06-08T20:13:06.683Z,18.10
2018-06-08T20:15:37.904Z,18.00
2018-06-08T20:18:07.137Z,17.90
2018-06-08T20:20:37.361Z,17.80
2018-06-08T20:23:05.631Z,17.80
2018-06-08T20:25:37.257Z,17.80
2018-06-08T20:28:06.454Z,17.70
2018-06-08T20:30:34.629Z,17.60
2018-06-08T20:33:03.850Z,17.60
2018-06-08T20:35:35.574Z,17.60
2018-06-08T20:38:03.808Z,17.60
2018-06-08T20:40:34.039Z,17.60
2018-06-08T20:43:02.137Z,17.60
2018-06-08T20:45:30.315Z,17.50
2018-06-08T20:47:58.449Z,17.40
2018-06-08T20:50:26.585Z,17.40
2018-06-08T20:52:54.700Z,17.40
2018-06-08T20:55:22.897Z,17.40
2018-06-08T20:57:59.400Z,17.40
2018-06-08T21:00:27.511Z,17.30
2018-06-08T21:02:55.665Z,17.30
2018-06-08T21:05:23.765Z,17.20
2018-06-08T21:07:51.875Z,17.20
2018-06-08T21:10:20.038Z,17.10
2018-06-08T21:12:48.152Z,17.00
2018-06-08T21:15:16.976Z,16.90
2018-06-08T21:17:45.095Z,16.90
2018-06-08T21:20:13.224Z,16.80
2018-06-08T21:22:41.386Z,16.70
2018-06-08T21:25:11.557Z,16.70
2018-06-08T21:27:43.393Z,16.60
2018-06-08T21:30:15.154Z,16.50
2018-06-08T21:32:43.273Z,16.50
2018-06-08T21:35:11.417Z,16.40
2018-06-08T21:37:39.566Z,16.40
2018-06-08T21:40:07.676Z,16.40
2018-06-08T21:42:35.817Z,16.30
2018-06-08T21:45:03.949Z,16.30
2018-06-08T21:47:32.070Z,16.20
2018-06-08T21:50:00.193Z,16.20
2018-06-08T21:52:28.321Z,16.10
2018-06-08T21:54:56.458Z,16.00
2018-06-08T21:57:24.588Z,16.00
2018-06-08T21:59:52.721Z,16.00
2018-06-08T22:02:20.829Z,15.90
2018-06-08T22:04:48.963Z,15.80
2018-06-08T22:07:17.092Z,15.80
2018-06-08T22:09:45.234Z,15.80
2018-06-08T22:12:13.376Z,15.80
2018-06-08T22:14:41.555Z,15.70
2018-06-08T22:17:09.690Z,15.70
2018-06-08T22:19:37.897Z,15.70
2018-06-08T22:22:06.040Z,15.60
2018-06-08T22:24:34.168Z,15.70
2018-06-08T22:27:02.325Z,15.60
2018-06-08T22:29:30.453Z,15.60
2018-06-08T22:31:58.580Z,15.60
2018-06-08T22:34:26.708Z,15.60
2018-06-08T22:36:54.824Z,15.60
2018-06-08T22:39:22.999Z,15.50
2018-06-08T22:41:51.107Z,15.50
2018-06-08T22:44:19.233Z,15.50
2018-06-08T22:46:47.385Z,15.50
2018-06-08T22:49:15.548Z,15.50
2018-06-08T22:51:43.656Z,15.50
2018-06-08T22:54:11.849Z,15.40
2018-06-08T22:56:39.969Z,15.40
2018-06-08T22:59:08.072Z,15.30
2018-06-08T23:01:36.837Z,15.30
2018-06-08T23:04:05.019Z,15.20
2018-06-08T23:06:33.166Z,15.10
2018-06-08T23:09:01.340Z,15.10
2018-06-08T23:11:29.421Z,15.10
2018-06-08T23:13:57.561Z,15.00
2018-06-08T23:16:25.720Z,15.20
2018-06-08T23:18:53.921Z,15.20
2018-06-08T23:21:22.049Z,14.70
2018-06-08T23:23:50.196Z,14.90
2018-06-08T23:26:18.393Z,14.80
2018-06-08T23:28:46.604Z,14.80
2018-06-08T23:31:14.749Z,14.90
2018-06-08T23:33:42.936Z,14.80
2018-06-08T23:36:11.070Z,14.70
2018-06-08T23:38:39.192Z,14.70
2018-06-08T23:41:07.390Z,14.20
2018-06-08T23:43:35.495Z,14.10
2018-06-08T23:46:03.640Z,14.70
2018-06-08T23:48:31.836Z,14.50
2018-06-08T23:50:59.984Z,14.70
2018-06-08T23:53:28.129Z,14.70
2018-06-08T23:55:56.262Z,14.70
2018-06-08T23:58:24.385Z,14.50
